• Join FlightAware (Why Join?)
  • Login
  • US Flag 
04:07PM EST


 

Airport Tracker/Info


-or-


 

Live Flight TrackerFlight Track Log ✈ SKW5631 ✈ 25 Sep 2013 ✈ KSFO - KBUR

Flight Track Log - Related Links

Times and Time Zones

All times are in EDT time to prevent confusion due to time zone crossing. See the SKW5631 flight status page for this flight to view local times or setup timezone preferences in your user account.

Time Position Orientation Groundspeed Altitude Reporting Facility
EDT Latitude Longitude Course Direction KTS MPH feet Rate Location/Type
10:29PM 37.6253 -122.3819 143° Southeast 137 158 27,000  Level Oakland Center
10:30PM 37.6481 -122.4358 298° West 181 208 3,300 -10,080 Descending Oakland Center
10:31PM 37.6728 -122.5044 294° West 206 237 6,600 2,580 Climbing Oakland Center
10:32PM 37.6175 -122.5361 204° Southwest 257 296 8,700 2,280 Climbing Oakland Center
10:33PM 37.5500 -122.4683 141° Southeast 306 352 11,300 2,340 Climbing Oakland Center
10:34PM 36.9796 -121.5842 143° Southeast  Level Estimated
10:34PM 37.4817 -122.3950 140° Southeast 319 367 13,500  Level Oakland Center
10:35PM 37.4061 -122.3131 139° Southeast 347 399 15,200 1,080 Climbing Oakland Center
10:36PM 37.3208 -122.2194 139° Southeast 393 452 15,800 1,020 Climbing Oakland Center
10:37PM 37.2322 -122.1222 139° Southeast 417 480 17,300 1,500 Climbing Oakland Center
10:38PM 37.1250 -122.0042 139° Southeast 426 490 18,900 1,320 Climbing Oakland Center
10:39PM 37.0328 -121.9036 139° Southeast 435 501 20,000 1,080 Climbing Oakland Center
10:40PM 36.9386 -121.8047 140° Southeast 444 511 21,200 1,020 Climbing Oakland Center
10:41PM 36.8453 -121.7067 140° Southeast 441 507 22,200 960 Climbing Oakland Center
10:42PM 36.7567 -121.6114 139° Southeast 444 511 23,200 960 Climbing Oakland Center
10:43PM 36.6631 -121.5097 139° Southeast 446 513 24,200 960 Climbing Oakland Center
10:44PM 36.5697 -121.4086 139° Southeast 446 513 25,200 1,080 Climbing Oakland Center
10:45PM 36.4578 -121.2875 139° Southeast 447 514 26,400 840 Climbing Oakland Center
10:46PM 36.3650 -121.1864 139° Southeast 445 512 27,000 240 Climbing Oakland Center
10:47PM 36.2658 -121.0847 140° Southeast 459 528 27,000  Level Oakland Center
10:48PM 36.1628 -120.9769 140° Southeast 477 549 27,000  Level Oakland Center
10:49PM 36.0608 -120.8667 139° Southeast 486 559 27,000  Level Oakland Center
10:50PM 35.9556 -120.7564 140° Southeast 492 566 27,000  Level Oakland Center
10:51PM 35.8514 -120.6469 140° Southeast 493 567 27,000  Level Oakland Center
10:52PM 35.7464 -120.5389 140° Southeast 492 566 27,000  Level Oakland Center
10:53PM 35.6417 -120.4292 140° Southeast 493 567 27,000  Level Oakland Center
10:54PM 35.5364 -120.3192 140° Southeast 491 565 27,000 -540 Level Oakland Center
10:55PM 35.4278 -120.2083 140° Southeast 493 567 25,900 -1,200 Descending Oakland Center
10:56PM 35.3197 -120.0967 140° Southeast 494 568 24,600 -1,560 Descending Oakland Center
10:57PM 35.2144 -119.9903 140° Southeast 489 563 22,800 -1,920 Descending Oakland Center
10:58PM 35.1103 -119.8831 140° Southeast 488 562 20,800 -2,220 Descending Oakland Center
10:59PM 35.0061 -119.7492 134° Southeast 466 536 18,400 -2,280 Descending Oakland Center
11:00PM 34.9742 -119.7039 131° Southeast 451 519 17,400 -1,920 Descending Los Angeles Center
11:01PM 34.8936 -119.5964 132° Southeast 436 502 15,500 -1,680 Descending Los Angeles Center
11:02PM 34.8153 -119.4914 132° Southeast 425 489 14,000 -1,380 Descending Los Angeles Center
11:03PM 34.7375 -119.3878 132° Southeast 419 482 12,700 -1,380 Descending Los Angeles Center
11:04PM 34.6472 -119.2642 132° Southeast 409 471 11,200 -840 Descending Los Angeles Center
11:05PM 34.5656 -119.1592 133° Southeast 414 476 11,000 -120 Descending Los Angeles Center
11:06PM 34.4950 -119.0661 133° Southeast 365 420 11,000 -300 Level Los Angeles Center
11:07PM 34.4319 -118.9817 132° Southeast 337 388 10,500 -1,080 Descending Los Angeles Center
11:08PM 34.3761 -118.8972 129° Southeast 321 369 8,800 -1,680 Descending Los Angeles Center
11:09PM 34.3272 -118.8156 126° Southeast 300 345 7,100 -1,800 Descending Los Angeles Center
11:10PM 34.2817 -118.7464 129° Southeast 268 308 5,200 -1,200 Descending Los Angeles Center
11:11PM 34.2442 -118.6836 126° Southeast 249 287 4,700 -600 Descending Los Angeles Center
11:12PM 34.2069 -118.6217 126° Southeast 199 229 4,000 -420 Descending Los Angeles Center
11:13PM 34.2000 -118.5667 99° East 185 213 4,000 -540 Level Southern California TRACON
11:14PM 34.2000 -118.5167 90° East 173 199 3,100 -900 Descending Southern California TRACON
11:15PM 34.2000 -118.4667 90° East 150 173 2,300 -840 Descending Southern California TRACON
11:16PM 34.2000 -118.4167 90° East 141 162 1,500 -600 Descending Southern California TRACON
11:17PM 34.1986 -118.3600 92° East 148 170 1,000 -420 Descending Los Angeles Center